Hauptseite
METAR-TAF:

METAR-TAF

Flughäfen :

Fliegerhorst Nörvenich

Nörvenich, Deutschland

Breite: 50-50N, Länge: 006-40E, Höhe: 118 m

Beobachtung

Neuester Wetterbericht von vor 15 Minuten, um 05:20 UTC
Wind 3 kt aus West/Südwest
Temperatur 2°C
Luftfeuchtigkeit 93%
Luftdruck 1046 hPa
Sichtweite: 3000 m
Geschlossene Wolkendecke in der Höhe von 100 ft
feuchter Dunst

METAR: ETNN 200520Z 25003KT 3000 BR OVC001 02/01 Q1046 RED RED TEMPO AMB

Zeit: 06:35 (05:35 UTC)


TAF: fehlend

Wetterbeobachtungen und Prognosen von mehr als 4000 Flughäfen (METAR und TAF Bericht).

Die verfügbaren Stationen werden durch gelbe und rote Markierungen auf der Karte dargestellt.

Führen Sie die Maus auf sie, um den Namen der Station zu sehen.

Darauf klicken, um die Beobachtung von Wetterbeobachtungen und Prognosen zu sehen.

Um die Karte zu ändern : klicken Sie auf den grünen Tasten mit einem schwarzen Kreuz Zum Vergrößern, auf den grünen Button mit einem Gedankenstrich zu verkleinern, oder auf die grünen Pfeile für benachbarte Karten.


METAR-TAF: